sensor_id;sensor_type;location;lat;lon;timestamp;temperature;humidity
27561;DHT22;15003;47.476;11.990;2022-08-01T00:02:17;23.70;57.00
27561;DHT22;15003;47.476;11.990;2022-08-01T00:04:43;23.70;57.00
27561;DHT22;15003;47.476;11.990;2022-08-01T00:07:09;23.70;57.50
27561;DHT22;15003;47.476;11.990;2022-08-01T00:09:34;23.60;57.20
27561;DHT22;15003;47.476;11.990;2022-08-01T00:12:00;23.60;57.20
27561;DHT22;15003;47.476;11.990;2022-08-01T00:14:26;23.60;57.30
27561;DHT22;15003;47.476;11.990;2022-08-01T00:16:52;23.60;57.50
27561;DHT22;15003;47.476;11.990;2022-08-01T00:19:17;23.60;57.60
27561;DHT22;15003;47.476;11.990;2022-08-01T00:21:43;23.60;57.60
27561;DHT22;15003;47.476;11.990;2022-08-01T00:24:09;23.50;57.50
27561;DHT22;15003;47.476;11.990;2022-08-01T00:26:35;23.50;57.60
27561;DHT22;15003;47.476;11.990;2022-08-01T00:29:00;23.50;57.70
27561;DHT22;15003;47.476;11.990;2022-08-01T00:31:26;23.50;57.50
27561;DHT22;15003;47.476;11.990;2022-08-01T00:33:52;23.50;57.40
27561;DHT22;15003;47.476;11.990;2022-08-01T00:36:18;23.40;57.40
27561;DHT22;15003;47.476;11.990;2022-08-01T00:38:43;23.40;57.40
27561;DHT22;15003;47.476;11.990;2022-08-01T00:41:09;23.40;57.60
27561;DHT22;15003;47.476;11.990;2022-08-01T00:43:35;23.40;57.60
27561;DHT22;15003;47.476;11.990;2022-08-01T00:46:01;23.30;57.50
27561;DHT22;15003;47.476;11.990;2022-08-01T00:48:26;23.30;57.60
27561;DHT22;15003;47.476;11.990;2022-08-01T00:50:52;23.20;57.60
27561;DHT22;15003;47.476;11.990;2022-08-01T00:53:18;23.20;57.80
27561;DHT22;15003;47.476;11.990;2022-08-01T00:55:44;23.20;57.90
27561;DHT22;15003;47.476;11.990;2022-08-01T00:58:10;23.20;58.00
27561;DHT22;15003;47.476;11.990;2022-08-01T01:00:35;23.10;57.90
27561;DHT22;15003;47.476;11.990;2022-08-01T01:03:01;23.10;58.10
27561;DHT22;15003;47.476;11.990;2022-08-01T01:05:27;23.10;58.10
27561;DHT22;15003;47.476;11.990;2022-08-01T01:07:59;23.10;58.10
27561;DHT22;15003;47.476;11.990;2022-08-01T01:10:48;23.10;58.10
27561;DHT22;15003;47.476;11.990;2022-08-01T01:13:38;23.10;58.90
27561;DHT22;15003;47.476;11.990;2022-08-01T01:16:12;23.00;58.40
27561;DHT22;15003;47.476;11.990;2022-08-01T01:19:00;23.00;58.20
27561;DHT22;15003;47.476;11.990;2022-08-01T01:21:35;23.00;58.70
27561;DHT22;15003;47.476;11.990;2022-08-01T01:24:37;22.90;58.50
27561;DHT22;15003;47.476;11.990;2022-08-01T01:30:38;22.90;58.80
27561;DHT22;15003;47.476;11.990;2022-08-01T01:33:08;22.90;58.70
27561;DHT22;15003;47.476;11.990;2022-08-01T01:35:47;22.90;58.70
27561;DHT22;15003;47.476;11.990;2022-08-01T01:38:22;22.90;58.80
27561;DHT22;15003;47.476;11.990;2022-08-01T01:40:52;22.90;58.80
27561;DHT22;15003;47.476;11.990;2022-08-01T01:43:18;22.90;58.80
27561;DHT22;15003;47.476;11.990;2022-08-01T01:45:47;22.80;58.70
27561;DHT22;15003;47.476;11.990;2022-08-01T01:48:16;22.80;58.80
27561;DHT22;15003;47.476;11.990;2022-08-01T01:50:45;22.90;58.90
27561;DHT22;15003;47.476;11.990;2022-08-01T01:53:13;22.80;58.90
27561;DHT22;15003;47.476;11.990;2022-08-01T01:55:43;22.80;58.90
27561;DHT22;15003;47.476;11.990;2022-08-01T01:58:13;22.80;58.90
27561;DHT22;15003;47.476;11.990;2022-08-01T02:00:40;22.80;59.10
27561;DHT22;15003;47.476;11.990;2022-08-01T02:03:10;22.80;59.10
27561;DHT22;15003;47.476;11.990;2022-08-01T02:05:38;22.80;59.20
27561;DHT22;15003;47.476;11.990;2022-08-01T02:08:05;22.70;59.10
27561;DHT22;15003;47.476;11.990;2022-08-01T02:10:34;22.70;59.20
27561;DHT22;15003;47.476;11.990;2022-08-01T02:13:03;22.70;59.20
27561;DHT22;15003;47.476;11.990;2022-08-01T02:15:32;22.70;59.20
27561;DHT22;15003;47.476;11.990;2022-08-01T02:18:00;22.70;59.20
27561;DHT22;15003;47.476;11.990;2022-08-01T02:20:29;22.70;59.20
27561;DHT22;15003;47.476;11.990;2022-08-01T02:23:01;22.70;59.20
27561;DHT22;15003;47.476;11.990;2022-08-01T02:25:48;22.70;59.20
27561;DHT22;15003;47.476;11.990;2022-08-01T02:28:25;22.70;59.10
27561;DHT22;15003;47.476;11.990;2022-08-01T02:31:00;22.70;59.30
27561;DHT22;15003;47.476;11.990;2022-08-01T02:33:38;22.70;59.40
27561;DHT22;15003;47.476;11.990;2022-08-01T02:36:11;22.60;59.50
27561;DHT22;15003;47.476;11.990;2022-08-01T02:38:43;22.60;59.60
27561;DHT22;15003;47.476;11.990;2022-08-01T02:41:13;22.60;59.80
27561;DHT22;15003;47.476;11.990;2022-08-01T02:43:46;22.60;59.80
27561;DHT22;15003;47.476;11.990;2022-08-01T02:46:20;22.60;59.80
27561;DHT22;15003;47.476;11.990;2022-08-01T02:48:50;22.60;59.80
27561;DHT22;15003;47.476;11.990;2022-08-01T02:51:18;22.60;59.70
27561;DHT22;15003;47.476;11.990;2022-08-01T02:53:48;22.60;59.70
27561;DHT22;15003;47.476;11.990;2022-08-01T02:56:16;22.60;59.50
27561;DHT22;15003;47.476;11.990;2022-08-01T02:58:44;22.60;59.40
27561;DHT22;15003;47.476;11.990;2022-08-01T03:01:12;22.60;59.40
27561;DHT22;15003;47.476;11.990;2022-08-01T03:03:39;22.50;59.50
27561;DHT22;15003;47.476;11.990;2022-08-01T03:06:06;22.50;59.60
27561;DHT22;15003;47.476;11.990;2022-08-01T03:08:34;22.50;59.70
27561;DHT22;15003;47.476;11.990;2022-08-01T03:11:02;22.50;59.80
27561;DHT22;15003;47.476;11.990;2022-08-01T03:13:29;22.40;59.80
27561;DHT22;15003;47.476;11.990;2022-08-01T03:15:57;22.50;59.80
27561;DHT22;15003;47.476;11.990;2022-08-01T03:18:24;22.50;59.70
27561;DHT22;15003;47.476;11.990;2022-08-01T03:20:52;22.50;59.70
27561;DHT22;15003;47.476;11.990;2022-08-01T03:23:21;22.50;59.70
27561;DHT22;15003;47.476;11.990;2022-08-01T03:25:48;22.50;59.60
27561;DHT22;15003;47.476;11.990;2022-08-01T03:28:16;22.40;59.50
27561;DHT22;15003;47.476;11.990;2022-08-01T03:30:42;22.40;59.50
27561;DHT22;15003;47.476;11.990;2022-08-01T03:33:09;22.40;59.50
27561;DHT22;15003;47.476;11.990;2022-08-01T03:35:42;22.40;59.40
27561;DHT22;15003;47.476;11.990;2022-08-01T03:38:13;22.30;59.50
27561;DHT22;15003;47.476;11.990;2022-08-01T03:41:08;22.40;59.60
27561;DHT22;15003;47.476;11.990;2022-08-01T03:43:41;22.30;59.60
27561;DHT22;15003;47.476;11.990;2022-08-01T03:46:17;22.30;59.60
27561;DHT22;15003;47.476;11.990;2022-08-01T03:48:48;22.30;59.60
27561;DHT22;15003;47.476;11.990;2022-08-01T03:51:18;22.20;59.70
27561;DHT22;15003;47.476;11.990;2022-08-01T03:53:45;22.20;60.40
27561;DHT22;15003;47.476;11.990;2022-08-01T03:56:14;22.20;59.80
27561;DHT22;15003;47.476;11.990;2022-08-01T03:58:44;22.20;59.90
27561;DHT22;15003;47.476;11.990;2022-08-01T04:01:10;22.20;59.90
27561;DHT22;15003;47.476;11.990;2022-08-01T04:03:37;22.20;59.90
27561;DHT22;15003;47.476;11.990;2022-08-01T04:06:07;22.20;59.80
27561;DHT22;15003;47.476;11.990;2022-08-01T04:08:37;22.20;59.80
27561;DHT22;15003;47.476;11.990;2022-08-01T04:11:03;22.20;59.80
27561;DHT22;15003;47.476;11.990;2022-08-01T04:13:30;22.20;59.70
27561;DHT22;15003;47.476;11.990;2022-08-01T04:15:57;22.10;59.70
27561;DHT22;15003;47.476;11.990;2022-08-01T04:18:22;22.10;59.80
27561;DHT22;15003;47.476;11.990;2022-08-01T04:20:48;22.10;60.00
27561;DHT22;15003;47.476;11.990;2022-08-01T04:23:17;22.10;60.10
27561;DHT22;15003;47.476;11.990;2022-08-01T04:25:48;22.10;60.20
27561;DHT22;15003;47.476;11.990;2022-08-01T04:28:15;22.10;60.20
27561;DHT22;15003;47.476;11.990;2022-08-01T04:30:44;22.10;60.40
27561;DHT22;15003;47.476;11.990;2022-08-01T04:33:14;22.10;60.50
27561;DHT22;15003;47.476;11.990;2022-08-01T04:35:44;22.20;60.50
27561;DHT22;15003;47.476;11.990;2022-08-01T04:38:13;22.20;60.40
27561;DHT22;15003;47.476;11.990;2022-08-01T04:40:41;22.20;60.30
27561;DHT22;15003;47.476;11.990;2022-08-01T04:43:08;22.20;60.10
27561;DHT22;15003;47.476;11.990;2022-08-01T04:45:35;22.20;60.00
27561;DHT22;15003;47.476;11.990;2022-08-01T04:48:01;22.10;60.00
27561;DHT22;15003;47.476;11.990;2022-08-01T04:50:27;22.10;60.30
27561;DHT22;15003;47.476;11.990;2022-08-01T04:52:53;22.10;60.50
27561;DHT22;15003;47.476;11.990;2022-08-01T04:55:19;22.10;60.60
27561;DHT22;15003;47.476;11.990;2022-08-01T04:57:46;22.10;61.00
27561;DHT22;15003;47.476;11.990;2022-08-01T05:00:13;22.20;61.10
27561;DHT22;15003;47.476;11.990;2022-08-01T05:02:39;22.20;61.10
27561;DHT22;15003;47.476;11.990;2022-08-01T05:05:05;22.20;61.20
27561;DHT22;15003;47.476;11.990;2022-08-01T05:07:32;22.30;61.20
27561;DHT22;15003;47.476;11.990;2022-08-01T05:09:58;22.30;61.10
27561;DHT22;15003;47.476;11.990;2022-08-01T05:12:24;22.30;61.00
27561;DHT22;15003;47.476;11.990;2022-08-01T05:14:50;22.40;61.10
27561;DHT22;15003;47.476;11.990;2022-08-01T05:17:15;22.40;61.00
27561;DHT22;15003;47.476;11.990;2022-08-01T05:19:41;22.50;61.00
27561;DHT22;15003;47.476;11.990;2022-08-01T05:22:08;22.50;60.90
27561;DHT22;15003;47.476;11.990;2022-08-01T05:24:36;22.50;60.90
27561;DHT22;15003;47.476;11.990;2022-08-01T05:27:04;22.60;60.70
27561;DHT22;15003;47.476;11.990;2022-08-01T05:29:30;22.60;60.60
27561;DHT22;15003;47.476;11.990;2022-08-01T05:31:56;22.70;60.60
27561;DHT22;15003;47.476;11.990;2022-08-01T05:34:22;22.70;60.50
27561;DHT22;15003;47.476;11.990;2022-08-01T05:36:48;22.80;60.70
27561;DHT22;15003;47.476;11.990;2022-08-01T05:39:14;22.80;60.90
27561;DHT22;15003;47.476;11.990;2022-08-01T05:41:40;22.80;60.60
27561;DHT22;15003;47.476;11.990;2022-08-01T05:44:07;22.90;60.80
27561;DHT22;15003;47.476;11.990;2022-08-01T05:46:34;22.90;61.00
27561;DHT22;15003;47.476;11.990;2022-08-01T05:49:01;23.00;60.80
27561;DHT22;15003;47.476;11.990;2022-08-01T05:51:27;23.10;60.60
27561;DHT22;15003;47.476;11.990;2022-08-01T05:53:54;23.10;60.50
27561;DHT22;15003;47.476;11.990;2022-08-01T05:56:20;23.20;60.60
27561;DHT22;15003;47.476;11.990;2022-08-01T05:58:47;23.20;60.30
27561;DHT22;15003;47.476;11.990;2022-08-01T06:01:13;23.30;60.30
27561;DHT22;15003;47.476;11.990;2022-08-01T06:03:39;23.40;60.20
27561;DHT22;15003;47.476;11.990;2022-08-01T06:06:05;23.40;59.90
27561;DHT22;15003;47.476;11.990;2022-08-01T06:08:31;23.50;59.70
27561;DHT22;15003;47.476;11.990;2022-08-01T06:10:57;23.60;59.60
27561;DHT22;15003;47.476;11.990;2022-08-01T06:13:23;23.70;59.70
27561;DHT22;15003;47.476;11.990;2022-08-01T06:15:49;23.70;59.20
27561;DHT22;15003;47.476;11.990;2022-08-01T06:18:15;23.80;59.10
27561;DHT22;15003;47.476;11.990;2022-08-01T06:20:41;23.80;58.90
27561;DHT22;15003;47.476;11.990;2022-08-01T06:23:08;23.90;58.70
27561;DHT22;15003;47.476;11.990;2022-08-01T06:25:34;24.00;58.40
27561;DHT22;15003;47.476;11.990;2022-08-01T06:28:00;24.00;58.30
27561;DHT22;15003;47.476;11.990;2022-08-01T06:30:26;24.00;58.20
27561;DHT22;15003;47.476;11.990;2022-08-01T06:32:52;24.00;58.30
27561;DHT22;15003;47.476;11.990;2022-08-01T06:35:18;24.10;58.10
27561;DHT22;15003;47.476;11.990;2022-08-01T06:37:44;24.10;58.00
27561;DHT22;15003;47.476;11.990;2022-08-01T06:40:11;24.10;58.10
27561;DHT22;15003;47.476;11.990;2022-08-01T06:42:37;24.20;58.00
27561;DHT22;15003;47.476;11.990;2022-08-01T06:45:05;24.30;57.50
27561;DHT22;15003;47.476;11.990;2022-08-01T06:47:32;24.30;57.10
27561;DHT22;15003;47.476;11.990;2022-08-01T06:49:58;24.30;57.10
27561;DHT22;15003;47.476;11.990;2022-08-01T06:52:24;24.40;57.10
27561;DHT22;15003;47.476;11.990;2022-08-01T06:54:50;24.40;57.00
27561;DHT22;15003;47.476;11.990;2022-08-01T06:57:16;24.50;57.00
27561;DHT22;15003;47.476;11.990;2022-08-01T06:59:42;24.50;57.10
27561;DHT22;15003;47.476;11.990;2022-08-01T07:02:08;24.60;57.00
27561;DHT22;15003;47.476;11.990;2022-08-01T07:04:34;24.60;56.90
27561;DHT22;15003;47.476;11.990;2022-08-01T07:07:00;24.70;57.10
27561;DHT22;15003;47.476;11.990;2022-08-01T07:09:26;24.80;56.90
27561;DHT22;15003;47.476;11.990;2022-08-01T07:11:53;24.80;56.50
27561;DHT22;15003;47.476;11.990;2022-08-01T07:14:20;24.90;56.30
27561;DHT22;15003;47.476;11.990;2022-08-01T07:16:46;25.00;56.20
27561;DHT22;15003;47.476;11.990;2022-08-01T07:19:12;25.00;55.90
27561;DHT22;15003;47.476;11.990;2022-08-01T07:21:38;25.00;55.90
27561;DHT22;15003;47.476;11.990;2022-08-01T07:24:05;25.00;56.00
27561;DHT22;15003;47.476;11.990;2022-08-01T07:26:32;25.10;55.90
27561;DHT22;15003;47.476;11.990;2022-08-01T07:28:58;25.10;55.90
27561;DHT22;15003;47.476;11.990;2022-08-01T07:31:24;25.20;55.70
27561;DHT22;15003;47.476;11.990;2022-08-01T07:33:50;25.30;55.70
27561;DHT22;15003;47.476;11.990;2022-08-01T07:36:17;25.30;55.30
27561;DHT22;15003;47.476;11.990;2022-08-01T07:38:43;25.30;55.20
27561;DHT22;15003;47.476;11.990;2022-08-01T07:41:10;25.30;55.30
27561;DHT22;15003;47.476;11.990;2022-08-01T07:43:35;25.40;55.40
27561;DHT22;15003;47.476;11.990;2022-08-01T07:46:03;25.40;55.40
27561;DHT22;15003;47.476;11.990;2022-08-01T07:48:30;25.50;55.40
27561;DHT22;15003;47.476;11.990;2022-08-01T07:50:56;25.50;55.20
27561;DHT22;15003;47.476;11.990;2022-08-01T07:53:22;25.60;55.40
27561;DHT22;15003;47.476;11.990;2022-08-01T07:55:48;25.60;55.20
27561;DHT22;15003;47.476;11.990;2022-08-01T07:58:14;25.70;55.30
27561;DHT22;15003;47.476;11.990;2022-08-01T08:00:40;25.80;55.20
27561;DHT22;15003;47.476;11.990;2022-08-01T08:03:06;25.80;55.60
27561;DHT22;15003;47.476;11.990;2022-08-01T08:05:32;25.90;55.00
27561;DHT22;15003;47.476;11.990;2022-08-01T08:07:58;26.00;54.60
27561;DHT22;15003;47.476;11.990;2022-08-01T08:10:24;26.10;54.50
27561;DHT22;15003;47.476;11.990;2022-08-01T08:12:50;26.20;54.50
27561;DHT22;15003;47.476;11.990;2022-08-01T08:15:15;26.30;54.50
27561;DHT22;15003;47.476;11.990;2022-08-01T08:17:41;26.40;54.40
27561;DHT22;15003;47.476;11.990;2022-08-01T08:20:08;26.50;54.20
27561;DHT22;15003;47.476;11.990;2022-08-01T08:22:34;26.50;53.90
27561;DHT22;15003;47.476;11.990;2022-08-01T08:25:00;26.60;53.70
27561;DHT22;15003;47.476;11.990;2022-08-01T08:27:26;26.70;53.60
27561;DHT22;15003;47.476;11.990;2022-08-01T08:29:52;26.80;53.10
27561;DHT22;15003;47.476;11.990;2022-08-01T08:32:18;26.90;52.80
27561;DHT22;15003;47.476;11.990;2022-08-01T08:34:43;27.00;52.70
27561;DHT22;15003;47.476;11.990;2022-08-01T08:37:10;27.00;52.40
27561;DHT22;15003;47.476;11.990;2022-08-01T08:39:35;27.20;52.40
27561;DHT22;15003;47.476;11.990;2022-08-01T08:42:06;27.20;52.40
27561;DHT22;15003;47.476;11.990;2022-08-01T08:44:32;27.30;51.80
27561;DHT22;15003;47.476;11.990;2022-08-01T08:47:00;27.40;52.60
27561;DHT22;15003;47.476;11.990;2022-08-01T08:49:29;27.40;51.60
27561;DHT22;15003;47.476;11.990;2022-08-01T08:51:59;27.60;51.90
27561;DHT22;15003;47.476;11.990;2022-08-01T08:54:27;27.60;51.50
27561;DHT22;15003;47.476;11.990;2022-08-01T08:56:55;27.70;51.60
27561;DHT22;15003;47.476;11.990;2022-08-01T08:59:22;27.80;51.60
27561;DHT22;15003;47.476;11.990;2022-08-01T09:01:48;28.00;51.30
27561;DHT22;15003;47.476;11.990;2022-08-01T09:04:14;28.10;50.90
27561;DHT22;15003;47.476;11.990;2022-08-01T09:06:40;28.30;51.30
27561;DHT22;15003;47.476;11.990;2022-08-01T09:09:07;28.50;51.20
27561;DHT22;15003;47.476;11.990;2022-08-01T09:11:34;28.60;50.30
27561;DHT22;15003;47.476;11.990;2022-08-01T09:14:09;28.80;49.30
27561;DHT22;15003;47.476;11.990;2022-08-01T09:16:40;29.00;48.30
27561;DHT22;15003;47.476;11.990;2022-08-01T09:19:11;29.10;48.10
27561;DHT22;15003;47.476;11.990;2022-08-01T09:21:38;29.30;47.50
27561;DHT22;15003;47.476;11.990;2022-08-01T09:24:13;29.30;47.10
27561;DHT22;15003;47.476;11.990;2022-08-01T09:26:40;29.50;46.90
27561;DHT22;15003;47.476;11.990;2022-08-01T09:29:07;29.60;46.80
27561;DHT22;15003;47.476;11.990;2022-08-01T09:31:42;29.60;46.40
27561;DHT22;15003;47.476;11.990;2022-08-01T09:34:09;29.80;45.50
27561;DHT22;15003;47.476;11.990;2022-08-01T09:36:49;29.80;46.00
27561;DHT22;15003;47.476;11.990;2022-08-01T09:39:16;29.90;45.90
27561;DHT22;15003;47.476;11.990;2022-08-01T09:41:43;30.00;46.00
27561;DHT22;15003;47.476;11.990;2022-08-01T09:44:09;30.00;45.80
27561;DHT22;15003;47.476;11.990;2022-08-01T09:46:35;30.20;45.70
27561;DHT22;15003;47.476;11.990;2022-08-01T09:49:03;30.30;45.90
27561;DHT22;15003;47.476;11.990;2022-08-01T09:51:36;30.40;45.40
27561;DHT22;15003;47.476;11.990;2022-08-01T09:54:04;30.50;44.90
27561;DHT22;15003;47.476;11.990;2022-08-01T09:56:41;30.60;45.50
27561;DHT22;15003;47.476;11.990;2022-08-01T09:59:08;30.80;44.60
27561;DHT22;15003;47.476;11.990;2022-08-01T10:01:49;30.80;44.80
27561;DHT22;15003;47.476;11.990;2022-08-01T10:04:21;31.00;44.00
27561;DHT22;15003;47.476;11.990;2022-08-01T10:06:49;31.10;43.90
27561;DHT22;15003;47.476;11.990;2022-08-01T10:09:27;31.20;44.10
27561;DHT22;15003;47.476;11.990;2022-08-01T10:11:55;31.30;43.60
27561;DHT22;15003;47.476;11.990;2022-08-01T10:14:24;31.40;43.30
27561;DHT22;15003;47.476;11.990;2022-08-01T10:16:52;31.50;43.40
27561;DHT22;15003;47.476;11.990;2022-08-01T10:19:18;31.70;43.80
27561;DHT22;15003;47.476;11.990;2022-08-01T10:21:47;31.70;43.60
27561;DHT22;15003;47.476;11.990;2022-08-01T10:24:14;31.90;43.60
27561;DHT22;15003;47.476;11.990;2022-08-01T10:26:41;32.00;44.20
27561;DHT22;15003;47.476;11.990;2022-08-01T10:29:09;32.20;45.00
27561;DHT22;15003;47.476;11.990;2022-08-01T10:31:37;32.30;43.90
27561;DHT22;15003;47.476;11.990;2022-08-01T10:34:04;32.40;43.70
27561;DHT22;15003;47.476;11.990;2022-08-01T10:36:31;32.50;43.30
27561;DHT22;15003;47.476;11.990;2022-08-01T10:38:57;32.70;42.50
27561;DHT22;15003;47.476;11.990;2022-08-01T10:41:24;32.80;42.20
27561;DHT22;15003;47.476;11.990;2022-08-01T10:43:52;32.90;42.10
27561;DHT22;15003;47.476;11.990;2022-08-01T10:46:19;33.00;42.20
27561;DHT22;15003;47.476;11.990;2022-08-01T10:48:54;33.10;42.00
27561;DHT22;15003;47.476;11.990;2022-08-01T10:51:22;33.20;41.90
27561;DHT22;15003;47.476;11.990;2022-08-01T10:53:53;33.30;41.20
27561;DHT22;15003;47.476;11.990;2022-08-01T10:56:23;33.50;41.20
27561;DHT22;15003;47.476;11.990;2022-08-01T10:58:49;33.50;41.70
27561;DHT22;15003;47.476;11.990;2022-08-01T11:01:30;33.60;41.40
27561;DHT22;15003;47.476;11.990;2022-08-01T11:04:11;33.70;40.90
27561;DHT22;15003;47.476;11.990;2022-08-01T11:07:06;33.80;40.30
27561;DHT22;15003;47.476;11.990;2022-08-01T11:09:46;33.90;40.80
27561;DHT22;15003;47.476;11.990;2022-08-01T11:12:17;33.90;39.20
27561;DHT22;15003;47.476;11.990;2022-08-01T11:17:45;34.10;40.30
27561;DHT22;15003;47.476;11.990;2022-08-01T11:20:17;34.10;38.50
27561;DHT22;15003;47.476;11.990;2022-08-01T11:26:10;34.10;38.90
27561;DHT22;15003;47.476;11.990;2022-08-01T11:30:50;34.20;38.50
27561;DHT22;15003;47.476;11.990;2022-08-01T11:33:19;34.40;39.50
27561;DHT22;15003;47.476;11.990;2022-08-01T11:38:42;34.60;38.40
27561;DHT22;15003;47.476;11.990;2022-08-01T11:44:12;34.70;37.30
27561;DHT22;15003;47.476;11.990;2022-08-01T11:49:48;34.80;36.50
27561;DHT22;15003;47.476;11.990;2022-08-01T11:52:29;34.80;36.70
27561;DHT22;15003;47.476;11.990;2022-08-01T11:57:32;34.90;36.10
27561;DHT22;15003;47.476;11.990;2022-08-01T11:59:58;34.90;35.80
27561;DHT22;15003;47.476;11.990;2022-08-01T12:02:31;35.00;36.10
27561;DHT22;15003;47.476;11.990;2022-08-01T12:04:59;35.10;35.50
27561;DHT22;15003;47.476;11.990;2022-08-01T12:07:28;35.00;35.50
27561;DHT22;15003;47.476;11.990;2022-08-01T12:09:58;35.00;35.50
27561;DHT22;15003;47.476;11.990;2022-08-01T12:12:25;35.00;35.60
27561;DHT22;15003;47.476;11.990;2022-08-01T12:15:10;34.90;35.10
27561;DHT22;15003;47.476;11.990;2022-08-01T12:17:41;34.90;35.70
27561;DHT22;15003;47.476;11.990;2022-08-01T12:20:14;34.90;34.80
27561;DHT22;15003;47.476;11.990;2022-08-01T12:22:41;34.90;34.30
27561;DHT22;15003;47.476;11.990;2022-08-01T12:25:08;34.90;35.10
27561;DHT22;15003;47.476;11.990;2022-08-01T12:27:36;34.90;34.40
27561;DHT22;15003;47.476;11.990;2022-08-01T12:30:06;34.90;34.20
27561;DHT22;15003;47.476;11.990;2022-08-01T12:32:38;34.90;33.50
27561;DHT22;15003;47.476;11.990;2022-08-01T12:37:43;34.90;34.70
27561;DHT22;15003;47.476;11.990;2022-08-01T12:40:18;34.90;33.90
27561;DHT22;15003;47.476;11.990;2022-08-01T12:42:48;34.80;34.20
27561;DHT22;15003;47.476;11.990;2022-08-01T12:45:19;34.80;33.60
27561;DHT22;15003;47.476;11.990;2022-08-01T12:47:47;34.70;33.90
27561;DHT22;15003;47.476;11.990;2022-08-01T12:50:20;34.70;34.50
27561;DHT22;15003;47.476;11.990;2022-08-01T12:52:48;34.70;34.10
27561;DHT22;15003;47.476;11.990;2022-08-01T12:55:15;34.60;33.90
27561;DHT22;15003;47.476;11.990;2022-08-01T12:57:43;34.60;33.30
27561;DHT22;15003;47.476;11.990;2022-08-01T13:00:17;34.60;33.90
27561;DHT22;15003;47.476;11.990;2022-08-01T13:02:46;34.60;33.10
27561;DHT22;15003;47.476;11.990;2022-08-01T13:05:13;34.60;32.70
27561;DHT22;15003;47.476;11.990;2022-08-01T13:07:43;34.40;32.50
27561;DHT22;15003;47.476;11.990;2022-08-01T13:10:12;34.30;32.00
27561;DHT22;15003;47.476;11.990;2022-08-01T13:12:40;34.20;32.10
27561;DHT22;15003;47.476;11.990;2022-08-01T13:15:18;34.00;32.60
27561;DHT22;15003;47.476;11.990;2022-08-01T13:17:49;33.90;33.00
27561;DHT22;15003;47.476;11.990;2022-08-01T13:20:23;33.80;33.70
27561;DHT22;15003;47.476;11.990;2022-08-01T13:22:53;33.70;34.10
27561;DHT22;15003;47.476;11.990;2022-08-01T13:25:20;33.70;34.00
27561;DHT22;15003;47.476;11.990;2022-08-01T13:27:45;33.50;34.10
27561;DHT22;15003;47.476;11.990;2022-08-01T13:30:12;33.50;34.00
27561;DHT22;15003;47.476;11.990;2022-08-01T13:32:44;33.40;34.20
27561;DHT22;15003;47.476;11.990;2022-08-01T13:35:23;33.40;34.30
27561;DHT22;15003;47.476;11.990;2022-08-01T13:37:48;33.30;34.20
27561;DHT22;15003;47.476;11.990;2022-08-01T13:40:23;33.20;34.50
27561;DHT22;15003;47.476;11.990;2022-08-01T13:42:51;33.20;34.70
27561;DHT22;15003;47.476;11.990;2022-08-01T13:45:16;33.00;34.70
27561;DHT22;15003;47.476;11.990;2022-08-01T13:47:43;33.00;35.10
27561;DHT22;15003;47.476;11.990;2022-08-01T13:50:09;33.00;34.90
27561;DHT22;15003;47.476;11.990;2022-08-01T13:52:34;32.90;35.00
27561;DHT22;15003;47.476;11.990;2022-08-01T13:55:05;32.90;34.70
27561;DHT22;15003;47.476;11.990;2022-08-01T13:57:31;32.90;34.90
27561;DHT22;15003;47.476;11.990;2022-08-01T13:59:56;32.80;35.20
27561;DHT22;15003;47.476;11.990;2022-08-01T14:02:22;32.80;34.90
27561;DHT22;15003;47.476;11.990;2022-08-01T14:04:48;32.70;34.70
27561;DHT22;15003;47.476;11.990;2022-08-01T14:07:14;32.70;34.90
27561;DHT22;15003;47.476;11.990;2022-08-01T14:09:39;32.70;35.40
27561;DHT22;15003;47.476;11.990;2022-08-01T14:12:05;32.60;35.60
27561;DHT22;15003;47.476;11.990;2022-08-01T14:14:31;32.50;35.40
27561;DHT22;15003;47.476;11.990;2022-08-01T14:16:57;32.40;35.40
27561;DHT22;15003;47.476;11.990;2022-08-01T14:19:23;32.40;35.40
27561;DHT22;15003;47.476;11.990;2022-08-01T14:21:49;32.40;35.50
27561;DHT22;15003;47.476;11.990;2022-08-01T14:24:15;32.40;35.30
27561;DHT22;15003;47.476;11.990;2022-08-01T14:26:40;32.30;35.70
27561;DHT22;15003;47.476;11.990;2022-08-01T14:29:06;32.30;36.10
27561;DHT22;15003;47.476;11.990;2022-08-01T14:31:32;32.20;36.50
27561;DHT22;15003;47.476;11.990;2022-08-01T14:33:58;32.20;36.60
27561;DHT22;15003;47.476;11.990;2022-08-01T14:36:23;32.30;36.60
27561;DHT22;15003;47.476;11.990;2022-08-01T14:38:49;32.30;36.30
27561;DHT22;15003;47.476;11.990;2022-08-01T14:41:15;32.40;36.10
27561;DHT22;15003;47.476;11.990;2022-08-01T14:43:41;32.50;36.20
27561;DHT22;15003;47.476;11.990;2022-08-01T14:46:07;32.60;36.40
27561;DHT22;15003;47.476;11.990;2022-08-01T14:48:32;32.60;36.50
27561;DHT22;15003;47.476;11.990;2022-08-01T14:50:59;32.70;36.20
27561;DHT22;15003;47.476;11.990;2022-08-01T14:53:25;32.80;36.10
27561;DHT22;15003;47.476;11.990;2022-08-01T14:55:51;32.90;36.00
27561;DHT22;15003;47.476;11.990;2022-08-01T14:58:16;33.00;35.90
27561;DHT22;15003;47.476;11.990;2022-08-01T15:00:42;33.10;36.30
27561;DHT22;15003;47.476;11.990;2022-08-01T15:03:08;33.20;36.10
27561;DHT22;15003;47.476;11.990;2022-08-01T15:05:34;33.20;35.50
27561;DHT22;15003;47.476;11.990;2022-08-01T15:07:59;33.20;35.20
27561;DHT22;15003;47.476;11.990;2022-08-01T15:10:25;33.20;34.90
27561;DHT22;15003;47.476;11.990;2022-08-01T15:12:51;33.20;35.00
27561;DHT22;15003;47.476;11.990;2022-08-01T15:15:17;33.10;34.90
27561;DHT22;15003;47.476;11.990;2022-08-01T15:17:43;33.10;35.40
27561;DHT22;15003;47.476;11.990;2022-08-01T15:20:09;33.10;36.00
27561;DHT22;15003;47.476;11.990;2022-08-01T15:22:35;33.00;36.40
27561;DHT22;15003;47.476;11.990;2022-08-01T15:25:02;32.90;36.30
27561;DHT22;15003;47.476;11.990;2022-08-01T15:27:28;32.90;36.70
27561;DHT22;15003;47.476;11.990;2022-08-01T15:29:55;32.80;36.70
27561;DHT22;15003;47.476;11.990;2022-08-01T15:32:22;32.80;36.40
27561;DHT22;15003;47.476;11.990;2022-08-01T15:34:48;32.70;36.40
27561;DHT22;15003;47.476;11.990;2022-08-01T15:37:14;32.70;36.70
27561;DHT22;15003;47.476;11.990;2022-08-01T15:39:40;32.70;36.60
27561;DHT22;15003;47.476;11.990;2022-08-01T15:42:08;32.70;36.50
27561;DHT22;15003;47.476;11.990;2022-08-01T15:44:35;32.70;36.10
27561;DHT22;15003;47.476;11.990;2022-08-01T15:47:02;32.70;36.00
27561;DHT22;15003;47.476;11.990;2022-08-01T15:49:29;32.80;36.30